Time;durP1;ratioP1;P1;durP2;ratioP2;P2;SDS_P1;SDS_P2;PMS_P1;PMS_P2;Temp;Humidity;BMP_temperature;BMP_pressure;BME280_temperature;BME280_humidity;BME280_pressure;Samples;Min_cycle;Max_cycle;Signal;HPM_P1;HPM_P2
2022/04/17 00:00:06;;;;;;;1.05;1.05;;;11.40;65.50;;;;;;5054050;28;20219;-76
2022/04/17 00:02:33;;;;;;;1.30;1.30;;;11.40;65.70;;;;;;5053494;28;20705;-75
2022/04/17 00:05:01;;;;;;;1.10;1.10;;;11.40;65.70;;;;;;5050370;28;20227;-75
2022/04/17 00:07:29;;;;;;;1.10;1.10;;;11.40;65.60;;;;;;5051761;28;20317;-78
2022/04/17 00:09:56;;;;;;;1.35;1.25;;;11.40;65.80;;;;;;5048988;28;20226;-76
2022/04/17 00:12:24;;;;;;;1.40;1.40;;;11.30;65.80;;;;;;5046858;28;20192;-76
2022/04/17 00:14:51;;;;;;;1.45;1.35;;;11.30;66.00;;;;;;5046463;28;20233;-75
2022/04/17 00:17:20;;;;;;;1.20;1.20;;;11.30;66.50;;;;;;5048202;28;20199;-76
2022/04/17 00:19:47;;;;;;;1.40;1.30;;;11.30;66.70;;;;;;5049979;28;20214;-77
2022/04/17 00:22:14;;;;;;;1.08;1.08;;;11.30;66.40;;;;;;5047759;28;20230;-77
2022/04/17 00:24:42;;;;;;;1.17;1.08;;;11.20;66.60;;;;;;5052963;28;20229;-75
2022/04/17 00:27:09;;;;;;;1.13;1.13;;;11.20;66.20;;;;;;5053873;28;20527;-76
2022/04/17 00:29:36;;;;;;;1.40;1.30;;;11.20;66.50;;;;;;5045187;28;20215;-76
2022/04/17 00:32:03;;;;;;;1.25;1.25;;;11.10;67.10;;;;;;5049587;28;20214;-76
2022/04/17 00:34:32;;;;;;;1.00;1.00;;;11.10;67.20;;;;;;5046965;28;20230;-77
2022/04/17 00:37:00;;;;;;;1.80;1.10;;;11.10;67.00;;;;;;5057372;28;20609;-75
2022/04/17 00:39:27;;;;;;;1.23;1.15;;;10.90;67.50;;;;;;5050217;28;20289;-76
2022/04/17 00:41:55;;;;;;;1.08;1.08;;;10.90;67.70;;;;;;5053846;28;20226;-76
2022/04/17 00:44:22;;;;;;;1.15;1.15;;;10.80;68.70;;;;;;5049969;28;20230;-77
2022/04/17 00:46:49;;;;;;;1.02;1.02;;;10.70;68.90;;;;;;5055974;28;20195;-76
2022/04/17 00:49:16;;;;;;;1.40;1.30;;;10.60;69.30;;;;;;5048540;28;20283;-76
2022/04/17 00:51:48;;;;;;;1.10;1.10;;;10.60;69.10;;;;;;5049185;28;20249;-76
2022/04/17 00:54:16;;;;;;;1.00;1.00;;;10.60;69.20;;;;;;5046206;28;20230;-75
2022/04/17 00:56:43;;;;;;;1.10;1.10;;;10.60;69.10;;;;;;5056133;28;20662;-76
2022/04/17 00:59:11;;;;;;;1.17;1.17;;;10.50;69.50;;;;;;5045655;28;20664;-76
2022/04/17 01:01:38;;;;;;;1.30;1.20;;;10.50;69.10;;;;;;5056200;28;20357;-77
2022/04/17 01:04:07;;;;;;;1.20;1.20;;;10.50;68.90;;;;;;5053835;28;20226;-77
2022/04/17 01:06:35;;;;;;;0.95;0.95;;;10.40;69.70;;;;;;5051743;28;20202;-76
2022/04/17 01:09:03;;;;;;;1.30;1.20;;;10.40;68.90;;;;;;5054133;28;20594;-77
2022/04/17 01:11:31;;;;;;;1.20;1.20;;;10.30;68.70;;;;;;5050754;28;20241;-76
2022/04/17 01:13:59;;;;;;;1.13;1.13;;;10.30;69.10;;;;;;5045953;28;20783;-76
2022/04/17 01:16:27;;;;;;;1.38;1.27;;;10.20;69.40;;;;;;5051240;28;20320;-76
2022/04/17 01:19:01;;;;;;;1.00;1.00;;;10.20;69.70;;;;;;5051437;28;20461;-76
2022/04/17 01:21:30;;;;;;;1.30;1.30;;;10.10;69.50;;;;;;5050317;28;20225;-76
2022/04/17 01:26:59;;;;;;;1.35;1.23;;;10.10;69.30;;;;;;5051875;28;20229;-77
2022/04/17 01:29:28;;;;;;;1.30;1.23;;;10.10;68.80;;;;;;5046891;28;20288;-75
2022/04/17 01:31:56;;;;;;;1.10;1.10;;;10.10;68.90;;;;;;5048276;28;20684;-75
2022/04/17 01:34:23;;;;;;;1.15;1.15;;;10.00;69.20;;;;;;5051524;28;20223;-75
2022/04/17 01:36:52;;;;;;;1.30;1.30;;;10.10;69.40;;;;;;5048413;28;20558;-75
2022/04/17 01:39:20;;;;;;;1.50;1.40;;;10.00;69.40;;;;;;5048049;28;20222;-76
2022/04/17 01:41:47;;;;;;;0.90;0.90;;;9.90;70.10;;;;;;5052141;28;20222;-76
2022/04/17 01:44:17;;;;;;;1.10;1.10;;;9.80;70.40;;;;;;5051907;28;20222;-76
2022/04/17 01:46:44;;;;;;;0.98;0.98;;;9.80;70.50;;;;;;5049389;28;20290;-74
2022/04/17 01:49:15;;;;;;;1.27;1.20;;;9.70;70.40;;;;;;5051475;28;20222;-76
2022/04/17 01:51:43;;;;;;;1.23;1.23;;;9.60;71.50;;;;;;5051524;28;20195;-76
2022/04/17 01:54:13;;;;;;;1.20;1.20;;;9.60;71.40;;;;;;5047397;28;20230;-74
2022/04/17 01:56:42;;;;;;;1.40;1.40;;;9.60;70.90;;;;;;5050331;28;20241;-76
2022/04/17 01:59:09;;;;;;;1.10;1.10;;;9.60;71.10;;;;;;5050318;28;20222;-74
2022/04/17 02:01:38;;;;;;;1.15;1.15;;;9.50;71.10;;;;;;5056009;28;20280;-76
2022/04/17 02:04:06;;;;;;;1.20;1.20;;;9.60;71.90;;;;;;5046362;28;20271;-77
2022/04/17 02:06:34;;;;;;;1.10;1.10;;;9.60;71.20;;;;;;5054571;28;20673;-76
2022/04/17 02:09:01;;;;;;;1.25;1.25;;;9.60;71.30;;;;;;5053456;28;20219;-75
2022/04/17 02:11:30;;;;;;;1.42;1.23;;;9.60;70.10;;;;;;5051071;28;20199;-77
2022/04/17 02:13:58;;;;;;;1.48;1.38;;;9.60;70.10;;;;;;5046213;28;20778;-76
2022/04/17 02:16:25;;;;;;;1.20;1.20;;;9.50;70.70;;;;;;5050524;28;20278;-76
2022/04/17 02:18:53;;;;;;;1.30;1.20;;;9.50;71.30;;;;;;5046595;28;20712;-77
2022/04/17 02:21:21;;;;;;;1.15;1.05;;;9.50;71.60;;;;;;5047544;28;20665;-75
2022/04/17 02:23:48;;;;;;;1.30;1.30;;;9.40;71.50;;;;;;5046460;28;20226;-75
2022/04/17 02:26:17;;;;;;;1.42;1.30;;;9.50;70.80;;;;;;5046344;28;20191;-76
2022/04/17 02:28:47;;;;;;;1.60;1.50;;;9.40;71.40;;;;;;5047292;28;20305;-75
2022/04/17 02:31:16;;;;;;;1.50;1.50;;;9.50;71.40;;;;;;5046431;28;20199;-75
2022/04/17 02:33:43;;;;;;;1.50;1.50;;;9.50;71.10;;;;;;5047778;28;20226;-75
2022/04/17 02:36:10;;;;;;;1.48;1.38;;;9.50;70.40;;;;;;5049044;28;20545;-76
2022/04/17 02:38:37;;;;;;;1.60;1.50;;;9.50;70.90;;;;;;5048309;28;20202;-76
2022/04/17 02:41:04;;;;;;;1.23;1.13;;;9.50;70.70;;;;;;5047262;28;20203;-77
2022/04/17 02:43:32;;;;;;;1.23;1.13;;;9.50;70.00;;;;;;5053262;28;20298;-77
2022/04/17 02:46:00;;;;;;;1.17;1.10;;;9.50;70.30;;;;;;5045960;28;20231;-76
2022/04/17 02:48:27;;;;;;;1.13;1.02;;;9.50;70.50;;;;;;5046013;28;20199;-76
2022/04/17 02:50:55;;;;;;;1.10;1.10;;;9.50;70.60;;;;;;5047803;28;20693;-76
2022/04/17 02:53:24;;;;;;;1.23;1.23;;;9.50;70.60;;;;;;5048036;28;20199;-75
2022/04/17 02:55:51;;;;;;;1.38;1.27;;;9.50;70.50;;;;;;5050796;28;20211;-77
2022/04/17 02:58:18;;;;;;;1.25;1.25;;;9.50;70.60;;;;;;5048310;28;20229;-75
2022/04/17 03:06:16;;;;;;;1.40;1.40;;;9.40;70.00;;;;;;5052407;28;20663;-76
2022/04/17 03:08:43;;;;;;;1.00;1.00;;;9.40;69.80;;;;;;5046277;28;20207;-76
2022/04/17 03:11:11;;;;;;;1.65;1.30;;;9.40;70.00;;;;;;5053067;28;20284;-75
2022/04/17 03:13:39;;;;;;;1.45;1.35;;;9.40;70.00;;;;;;5051082;28;20229;-76
2022/04/17 03:16:08;;;;;;;1.20;1.20;;;9.30;69.80;;;;;;5048486;28;20202;-75
2022/04/17 03:18:36;;;;;;;1.48;1.38;;;9.30;70.20;;;;;;5046632;28;20199;-76
2022/04/17 03:21:03;;;;;;;1.45;1.38;;;9.20;70.00;;;;;;5050383;28;20543;-75
2022/04/17 03:23:31;;;;;;;1.33;1.33;;;9.20;69.90;;;;;;5048686;28;20309;-76
2022/04/17 03:25:57;;;;;;;1.73;1.63;;;9.20;69.80;;;;;;5044830;22;20239;-76
2022/04/17 03:28:24;;;;;;;1.60;1.50;;;9.30;69.90;;;;;;5023039;28;20195;-77
2022/04/17 03:30:51;;;;;;;1.85;1.75;;;9.30;69.90;;;;;;5023126;28;20242;-79
2022/04/17 03:33:18;;;;;;;1.30;1.20;;;9.30;70.30;;;;;;5017569;28;20292;-77
2022/04/17 03:35:47;;;;;;;1.20;1.20;;;9.20;70.30;;;;;;5025692;28;20262;-77
2022/04/17 03:38:14;;;;;;;1.90;1.80;;;9.20;70.60;;;;;;5034365;28;20227;-78
2022/04/17 03:40:41;;;;;;;1.77;1.67;;;9.10;70.60;;;;;;5039143;28;20199;-78
2022/04/17 03:43:08;;;;;;;1.48;1.48;;;9.10;70.70;;;;;;5037915;28;20222;-78
2022/04/17 03:45:35;;;;;;;1.50;1.40;;;9.10;70.90;;;;;;5040948;28;20237;-79
2022/04/17 03:48:02;;;;;;;1.38;1.27;;;9.10;71.00;;;;;;5030509;28;20222;-76
2022/04/17 03:50:29;;;;;;;1.40;1.30;;;9.00;71.30;;;;;;5037159;28;20207;-78
2022/04/17 03:52:58;;;;;;;1.38;1.27;;;8.90;71.30;;;;;;5036696;28;20218;-78
2022/04/17 03:55:25;;;;;;;1.30;1.30;;;8.90;71.30;;;;;;5036323;28;20641;-78
2022/04/17 03:57:52;;;;;;;1.25;1.25;;;8.90;71.50;;;;;;5038900;28;20265;-80
2022/04/17 04:00:19;;;;;;;1.40;1.40;;;8.80;71.70;;;;;;5032003;28;20705;-78
2022/04/17 04:02:51;;;;;;;1.42;1.42;;;8.80;71.80;;;;;;5039356;28;20312;-78
2022/04/17 04:05:19;;;;;;;1.75;1.65;;;8.80;72.00;;;;;;5040556;28;20225;-78
2022/04/17 04:07:46;;;;;;;1.20;1.20;;;8.80;71.80;;;;;;5034173;28;20718;-78
2022/04/17 04:10:16;;;;;;;1.42;1.33;;;8.80;71.70;;;;;;5036404;28;20203;-78
2022/04/17 04:12:43;;;;;;;1.35;1.35;;;8.80;72.20;;;;;;5038472;28;20650;-77
2022/04/17 04:15:10;;;;;;;1.27;1.27;;;8.80;72.60;;;;;;5034291;28;20260;-78
2022/04/17 04:17:39;;;;;;;1.40;1.40;;;8.70;73.00;;;;;;5033696;28;20571;-77
2022/04/17 04:20:07;;;;;;;1.85;1.20;;;8.70;73.60;;;;;;5036425;28;20524;-78
2022/04/17 04:22:34;;;;;;;1.52;1.42;;;8.60;74.30;;;;;;5037808;28;20215;-78
2022/04/17 04:25:01;;;;;;;1.38;1.38;;;8.60;74.40;;;;;;5038542;28;20701;-77
2022/04/17 04:30:14;;;;;;;1.20;1.20;;;8.50;74.60;;;;;;5034381;28;20260;-78
2022/04/17 04:32:52;;;;;;;1.27;1.17;;;8.50;75.20;;;;;;5034723;28;20219;-78
2022/04/17 04:35:19;;;;;;;1.30;1.30;;;8.40;75.20;;;;;;5044296;28;20226;-77
2022/04/17 04:37:46;;;;;;;1.55;1.50;;;8.40;76.00;;;;;;5042417;28;20227;-76
2022/04/17 04:40:13;;;;;;;1.98;1.30;;;8.30;76.40;;;;;;5043884;28;20666;-78
2022/04/17 04:42:42;;;;;;;1.27;1.20;;;8.30;75.40;;;;;;5040246;28;20222;-76
2022/04/17 04:47:54;;;;;;;1.50;1.40;;;8.30;76.90;;;;;;5041903;28;20217;-77
2022/04/17 04:50:20;;;;;;;1.42;1.33;;;8.20;76.70;;;;;;5042866;28;20203;-80
2022/04/17 04:52:47;;;;;;;1.83;1.73;;;8.20;77.00;;;;;;5040350;28;20705;-79
2022/04/17 04:55:14;;;;;;;1.40;1.30;;;8.30;76.80;;;;;;5048050;28;20562;-77
2022/04/17 04:57:42;;;;;;;1.40;1.40;;;8.30;76.90;;;;;;5041322;28;21811;-78
2022/04/17 05:00:10;;;;;;;1.50;1.40;;;8.20;76.70;;;;;;5039037;28;20206;-79
2022/04/17 05:02:37;;;;;;;1.17;1.17;;;8.20;76.50;;;;;;5037842;28;20701;-78
2022/04/17 05:05:05;;;;;;;2.67;1.83;;;8.30;76.30;;;;;;5043758;28;20218;-78
2022/04/17 05:07:32;;;;;;;2.92;1.60;;;8.30;76.20;;;;;;5039557;28;20242;-80
2022/04/17 05:10:00;;;;;;;1.45;1.35;;;8.40;76.80;;;;;;5040032;28;20206;-77
2022/04/17 05:12:27;;;;;;;1.67;1.30;;;8.70;77.00;;;;;;5042029;28;20218;-77
2022/04/17 05:14:56;;;;;;;1.30;1.30;;;9.10;76.10;;;;;;5034651;28;20757;-78
2022/04/17 05:17:23;;;;;;;1.10;1.10;;;9.50;75.50;;;;;;5043893;28;20215;-79
2022/04/17 05:19:50;;;;;;;1.30;1.30;;;9.90;74.80;;;;;;5042314;28;20191;-79
2022/04/17 05:22:19;;;;;;;1.20;1.20;;;10.20;74.00;;;;;;5047378;28;20214;-79
2022/04/17 05:24:48;;;;;;;1.45;1.45;;;10.60;74.10;;;;;;5045880;28;20313;-81
2022/04/17 05:27:15;;;;;;;1.20;1.20;;;10.80;72.90;;;;;;5037674;28;20227;-78
2022/04/17 05:29:43;;;;;;;1.42;1.35;;;11.10;73.30;;;;;;5041350;28;20199;-80
2022/04/17 05:32:12;;;;;;;1.45;1.40;;;11.30;72.50;;;;;;5042282;28;20319;-81
2022/04/17 05:34:39;;;;;;;1.80;1.70;;;11.60;72.70;;;;;;5042073;28;20211;-79
2022/04/17 05:37:07;;;;;;;1.60;1.50;;;11.70;73.20;;;;;;5036591;28;21794;-80
2022/04/17 05:39:34;;;;;;;1.85;1.73;;;11.80;73.40;;;;;;5046536;28;20195;-80
2022/04/17 05:42:01;;;;;;;1.70;1.60;;;12.00;73.60;;;;;;5047257;28;20228;-81
2022/04/17 05:44:29;;;;;;;1.42;1.35;;;12.30;72.10;;;;;;5043329;28;20276;-81
2022/04/17 05:46:59;;;;;;;1.63;1.52;;;12.30;71.90;;;;;;5040165;28;20223;-78
2022/04/17 05:49:28;;;;;;;1.30;1.30;;;12.30;72.00;;;;;;5046388;28;20454;-79
2022/04/17 05:51:58;;;;;;;2.90;1.70;;;12.20;72.70;;;;;;5044098;28;20658;-77
2022/04/17 05:54:25;;;;;;;2.17;1.40;;;12.20;73.60;;;;;;5042790;28;20290;-77
2022/04/17 05:56:52;;;;;;;1.65;1.40;;;12.10;73.10;;;;;;5040107;28;20713;-79
2022/04/17 05:59:19;;;;;;;1.60;1.50;;;12.10;74.70;;;;;;5041571;28;20649;-79
2022/04/17 06:01:47;;;;;;;1.65;1.55;;;12.00;73.40;;;;;;5041359;28;20214;-80
2022/04/17 06:04:14;;;;;;;1.58;1.48;;;12.30;73.90;;;;;;5038311;28;20566;-81
2022/04/17 06:06:43;;;;;;;1.42;1.38;;;12.50;72.50;;;;;;5042566;28;20219;-77
2022/04/17 06:09:10;;;;;;;1.60;1.50;;;12.50;73.10;;;;;;5041982;28;21194;-79
2022/04/17 06:11:37;;;;;;;1.98;1.58;;;12.60;74.10;;;;;;5042898;28;20615;-78
2022/04/17 06:14:04;;;;;;;1.10;1.10;;;12.60;72.90;;;;;;5038635;28;20666;-79
2022/04/17 06:16:32;;;;;;;1.50;1.40;;;12.80;73.40;;;;;;5040880;28;20228;-78
2022/04/17 06:18:59;;;;;;;1.25;1.25;;;13.00;73.10;;;;;;5047137;28;20237;-80
2022/04/17 06:21:26;;;;;;;1.30;1.20;;;13.20;72.70;;;;;;5039973;28;20739;-79
2022/04/17 06:23:54;;;;;;;1.40;1.30;;;13.30;73.00;;;;;;5039499;28;20227;-78
2022/04/17 06:26:21;;;;;;;1.30;1.20;;;13.50;74.30;;;;;;5040842;28;20238;-80
2022/04/17 06:28:48;;;;;;;1.58;1.48;;;13.70;72.30;;;;;;5043660;28;20218;-79
2022/04/17 06:31:15;;;;;;;1.70;1.60;;;14.00;72.10;;;;;;5046226;28;20693;-78
2022/04/17 06:33:42;;;;;;;1.42;1.23;;;13.90;71.30;;;;;;5049693;28;20322;-82
2022/04/17 06:36:09;;;;;;;1.40;1.30;;;14.10;71.50;;;;;;5045330;28;20308;-78
2022/04/17 06:38:37;;;;;;;1.45;1.40;;;14.00;70.30;;;;;;5046388;28;20226;-80
2022/04/17 06:41:05;;;;;;;1.45;1.35;;;14.00;69.90;;;;;;5044771;28;20245;-79
2022/04/17 06:43:32;;;;;;;1.35;1.25;;;14.00;70.30;;;;;;5044353;28;20245;-75
2022/04/17 06:45:59;;;;;;;1.70;1.50;;;14.20;71.40;;;;;;5048040;28;20218;-79
2022/04/17 06:48:26;;;;;;;2.30;1.33;;;14.30;71.70;;;;;;5044629;28;20223;-78
2022/04/17 06:50:54;;;;;;;1.77;1.45;;;14.50;71.00;;;;;;5053672;28;20217;-77
2022/04/17 06:53:21;;;;;;;1.30;1.20;;;14.50;71.50;;;;;;5050114;28;20215;-77
2022/04/17 06:55:49;;;;;;;1.58;1.48;;;14.70;71.50;;;;;;5042866;28;20222;-78
2022/04/17 06:58:18;;;;;;;1.23;1.15;;;14.50;70.00;;;;;;5051649;28;20573;-78
2022/04/17 07:00:46;;;;;;;1.67;1.35;;;14.60;71.90;;;;;;5047486;28;20211;-78
2022/04/17 07:03:14;;;;;;;1.73;1.40;;;14.80;71.40;;;;;;5049363;28;20311;-76
2022/04/17 07:05:41;;;;;;;1.63;1.30;;;14.90;70.70;;;;;;5046314;28;20657;-79
2022/04/17 07:08:09;;;;;;;1.35;1.25;;;14.90;70.00;;;;;;5049767;28;20225;-80
2022/04/17 07:10:38;;;;;;;1.33;1.23;;;14.80;69.90;;;;;;5048139;28;20567;-78
2022/04/17 07:13:05;;;;;;;1.98;1.50;;;14.50;67.90;;;;;;5051219;28;20227;-80
2022/04/17 07:15:33;;;;;;;1.70;1.60;;;14.00;69.20;;;;;;5046073;28;20646;-79
2022/04/17 07:18:00;;;;;;;1.65;1.55;;;13.80;69.60;;;;;;5044868;28;20250;-79
2022/04/17 07:20:27;;;;;;;1.50;1.40;;;13.90;70.00;;;;;;5049764;28;20291;-79
2022/04/17 07:22:55;;;;;;;1.40;1.27;;;14.00;70.10;;;;;;5043989;28;20234;-78
2022/04/17 07:25:22;;;;;;;1.40;1.30;;;14.10;68.60;;;;;;5047514;28;20219;-78
2022/04/17 07:27:50;;;;;;;1.30;1.20;;;14.30;69.30;;;;;;5042047;28;20223;-79
2022/04/17 07:30:20;;;;;;;1.50;1.30;;;14.60;70.40;;;;;;5054579;28;20214;-78
2022/04/17 07:32:51;;;;;;;2.28;1.50;;;14.90;69.00;;;;;;5046179;28;20230;-82
2022/04/17 07:35:18;;;;;;;1.70;1.60;;;15.10;68.70;;;;;;5044819;28;20212;-78
2022/04/17 07:37:49;;;;;;;1.60;1.50;;;15.30;67.50;;;;;;5042395;28;20305;-79
2022/04/17 07:40:19;;;;;;;1.55;1.27;;;15.30;67.00;;;;;;5040422;28;20629;-79
2022/04/17 07:42:47;;;;;;;1.55;1.45;;;15.70;68.00;;;;;;5050528;28;20222;-79
2022/04/17 07:45:15;;;;;;;1.50;1.40;;;15.70;65.00;;;;;;5047225;28;20218;-78
2022/04/17 07:47:42;;;;;;;1.65;1.45;;;15.40;65.10;;;;;;5041712;28;20219;-79
2022/04/17 07:50:13;;;;;;;1.90;1.42;;;15.30;65.70;;;;;;5038373;28;20504;-75
2022/04/17 07:52:41;;;;;;;5.60;1.40;;;15.20;65.50;;;;;;5042547;28;20277;-76
2022/04/17 07:55:09;;;;;;;1.52;1.27;;;15.10;65.10;;;;;;5043854;28;20433;-77
2022/04/17 08:00:20;;;;;;;2.13;1.83;;;15.10;65.30;;;;;;5046132;28;20317;-79
2022/04/17 08:02:53;;;;;;;1.75;1.38;;;15.10;64.70;;;;;;5045331;28;20277;-80
2022/04/17 08:05:22;;;;;;;2.17;1.45;;;15.30;65.90;;;;;;5038039;28;20254;-76
2022/04/17 08:07:49;;;;;;;1.60;1.50;;;15.50;65.40;;;;;;5042453;28;20224;-80
2022/04/17 08:10:16;;;;;;;1.58;1.48;;;15.80;64.80;;;;;;5040140;28;20198;-78
2022/04/17 08:12:44;;;;;;;1.30;1.10;;;15.70;64.50;;;;;;5043318;28;20227;-79
2022/04/17 08:15:11;;;;;;;1.20;1.10;;;15.90;64.80;;;;;;5043698;28;20610;-81
2022/04/17 08:17:38;;;;;;;1.35;1.25;;;16.20;64.90;;;;;;5036226;28;20285;-78
2022/04/17 08:20:06;;;;;;;1.60;1.50;;;16.30;65.00;;;;;;5041384;28;20195;-79
2022/04/17 08:22:34;;;;;;;1.10;1.10;;;16.50;66.40;;;;;;5048357;28;20596;-77
2022/04/17 08:25:05;;;;;;;1.35;1.25;;;16.50;63.00;;;;;;5042451;28;20214;-80
2022/04/17 08:27:32;;;;;;;1.42;1.33;;;16.30;64.00;;;;;;5050031;28;20250;-77
2022/04/17 08:29:59;;;;;;;1.77;1.30;;;16.30;63.50;;;;;;5036966;28;20256;-77
2022/04/17 08:32:26;;;;;;;1.77;1.23;;;16.50;64.90;;;;;;5038404;28;20611;-77
2022/04/17 08:35:01;;;;;;;1.20;1.10;;;16.70;63.90;;;;;;5036573;28;20269;-78
2022/04/17 08:37:28;;;;;;;1.05;1.05;;;16.80;64.10;;;;;;5043874;28;20602;-77
2022/04/17 08:39:56;;;;;;;1.50;1.40;;;17.00;64.90;;;;;;5042737;28;20199;-79
2022/04/17 08:42:26;;;;;;;2.35;1.27;;;17.10;63.50;;;;;;5039325;28;20199;-77
2022/04/17 08:44:53;;;;;;;1.75;1.55;;;17.10;64.90;;;;;;5034421;28;20230;-78
2022/04/17 08:47:20;;;;;;;1.20;1.20;;;17.20;66.00;;;;;;5033017;28;20670;-78
2022/04/17 08:49:50;;;;;;;1.60;1.50;;;17.20;62.80;;;;;;5036568;28;20258;-78
2022/04/17 08:52:18;;;;;;;1.88;1.42;;;17.20;64.30;;;;;;5034803;28;20286;-77
2022/04/17 08:54:47;;;;;;;1.50;1.40;;;17.50;63.40;;;;;;5034463;28;20216;-78
2022/04/17 08:57:16;;;;;;;1.60;1.27;;;17.70;64.40;;;;;;5037451;28;20196;-79
2022/04/17 08:59:43;;;;;;;1.50;1.40;;;17.80;64.00;;;;;;5036262;28;20202;-78
2022/04/17 09:02:11;;;;;;;1.25;1.20;;;17.90;63.20;;;;;;5038239;28;20261;-81
2022/04/17 09:04:39;;;;;;;1.92;1.30;;;18.00;65.60;;;;;;5040809;28;20219;-78
2022/04/17 09:07:07;;;;;;;1.70;1.60;;;18.10;63.20;;;;;;5035978;28;20195;-79
2022/04/17 09:09:39;;;;;;;1.77;1.35;;;18.20;62.40;;;;;;5035934;28;20235;-80
2022/04/17 09:12:06;;;;;;;1.40;1.30;;;18.00;62.10;;;;;;5035435;28;20274;-80
2022/04/17 09:14:40;;;;;;;1.50;1.40;;;18.10;63.00;;;;;;5033621;28;20774;-78
2022/04/17 09:17:11;;;;;;;1.60;1.50;;;18.20;62.00;;;;;;5032445;28;20196;-79
2022/04/17 09:19:38;;;;;;;1.30;1.20;;;18.40;62.60;;;;;;5036088;28;20223;-78
2022/04/17 09:22:07;;;;;;;1.38;1.23;;;18.20;61.20;;;;;;5044456;28;20195;-77
2022/04/17 09:24:36;;;;;;;1.52;1.20;;;18.20;61.20;;;;;;5041183;28;20705;-78
2022/04/17 09:27:04;;;;;;;1.67;1.20;;;18.10;61.30;;;;;;5029180;22;20808;-76
2022/04/17 09:29:34;;;;;;;1.30;1.17;;;18.30;61.00;;;;;;4992097;28;20225;-76
2022/04/17 09:32:03;;;;;;;1.20;1.10;;;18.20;60.60;;;;;;4995221;28;20232;-77
2022/04/17 09:34:42;;;;;;;1.73;1.23;;;18.40;60.80;;;;;;4974346;28;20280;-76
2022/04/17 09:37:14;;;;;;;1.40;1.23;;;18.50;60.20;;;;;;4972672;28;20213;-77
2022/04/17 09:39:42;;;;;;;1.30;1.20;;;18.40;60.00;;;;;;4988949;28;20779;-77
2022/04/17 09:42:09;;;;;;;1.60;1.50;;;18.60;60.40;;;;;;4987035;28;20204;-78
2022/04/17 09:44:38;;;;;;;1.17;1.15;;;18.60;60.00;;;;;;4989351;28;20220;-78
2022/04/17 09:47:12;;;;;;;1.40;1.30;;;18.60;60.60;;;;;;4988821;28;20762;-78
2022/04/17 09:49:56;;;;;;;2.40;1.40;;;18.70;59.10;;;;;;4965431;28;20223;-77
2022/04/17 09:52:24;;;;;;;1.33;1.00;;;18.60;59.70;;;;;;4960294;28;20205;-78
2022/04/17 09:54:52;;;;;;;1.27;1.23;;;18.80;59.80;;;;;;4967708;28;20214;-78
2022/04/17 09:57:20;;;;;;;1.25;1.15;;;19.00;60.00;;;;;;4964332;28;20242;-77
2022/04/17 09:59:48;;;;;;;1.15;1.08;;;19.50;62.50;;;;;;4965814;28;20217;-79
2022/04/17 10:02:18;;;;;;;0.90;0.90;;;20.00;60.00;;;;;;4964030;28;20208;-78
2022/04/17 10:04:46;;;;;;;1.00;1.00;;;20.00;58.30;;;;;;4963004;28;20222;-78
2022/04/17 10:07:14;;;;;;;1.73;0.95;;;20.00;58.60;;;;;;4960921;28;20297;-77
2022/04/17 10:09:43;;;;;;;1.00;0.90;;;19.90;60.30;;;;;;4954748;28;20627;-79
2022/04/17 10:12:14;;;;;;;1.30;1.20;;;19.70;59.70;;;;;;4960088;28;20292;-78
2022/04/17 10:14:42;;;;;;;1.38;1.13;;;19.70;59.20;;;;;;4955582;28;20302;-78
2022/04/17 10:17:10;;;;;;;0.90;0.90;;;19.40;58.90;;;;;;4966735;28;20727;-78
2022/04/17 10:19:42;;;;;;;1.27;1.17;;;19.60;59.70;;;;;;4955826;28;20229;-79
2022/04/17 10:22:10;;;;;;;1.35;1.10;;;19.60;59.00;;;;;;4955853;28;20202;-77
2022/04/17 10:24:39;;;;;;;2.08;0.90;;;19.70;59.00;;;;;;4959109;28;20719;-77
2022/04/17 10:27:08;;;;;;;1.67;1.20;;;19.80;59.30;;;;;;4961145;28;20646;-78
2022/04/17 10:29:43;;;;;;;1.88;1.27;;;20.00;59.60;;;;;;4958715;28;20221;-79
2022/04/17 10:32:31;;;;;;;1.15;0.90;;;20.20;58.70;;;;;;4962761;28;20197;-78
2022/04/17 10:35:21;;;;;;;1.20;1.17;;;20.30;58.80;;;;;;4942137;28;20218;-77
2022/04/17 10:38:14;;;;;;;2.08;1.30;;;20.70;59.40;;;;;;4958541;28;20218;-79
2022/04/17 10:40:41;;;;;;;1.25;1.08;;;20.90;58.70;;;;;;4958253;28;20634;-77
2022/04/17 10:43:08;;;;;;;0.90;0.90;;;20.80;58.10;;;;;;4960494;28;20230;-78
2022/04/17 10:46:07;;;;;;;1.23;1.13;;;20.90;58.80;;;;;;4958032;28;20226;-78
2022/04/17 10:48:47;;;;;;;21.55;7.25;;;21.10;57.50;;;;;;4955939;28;20300;-78
2022/04/17 10:51:17;;;;;;;53.13;20.20;;;21.20;58.90;;;;;;4954918;28;20213;-76
2022/04/17 10:54:06;;;;;;;47.88;18.88;;;21.30;60.00;;;;;;4953018;28;20221;-79
2022/04/17 10:56:35;;;;;;;16.98;6.95;;;21.50;57.40;;;;;;4957409;28;20631;-77
2022/04/17 10:59:06;;;;;;;13.63;5.85;;;21.50;58.00;;;;;;4956411;28;20390;-77
2022/04/17 11:02:10;;;;;;;15.73;7.95;;;21.60;58.20;;;;;;4949970;28;20202;-78
2022/04/17 11:04:41;;;;;;;6.05;3.05;;;21.80;59.60;;;;;;4948281;28;20217;-78
2022/04/17 11:07:30;;;;;;;2.78;1.90;;;21.90;57.80;;;;;;4954811;28;20316;-75
2022/04/17 11:10:26;;;;;;;1.40;1.10;;;22.10;56.50;;;;;;4952787;28;20225;-78
2022/04/17 11:12:55;;;;;;;1.55;1.15;;;21.80;53.10;;;;;;4917751;28;20686;-77
2022/04/17 11:15:24;;;;;;;1.55;0.90;;;21.60;56.70;;;;;;4955034;28;20663;-77
2022/04/17 11:17:52;;;;;;;1.00;1.00;;;21.30;56.90;;;;;;4959713;28;20236;-77
2022/04/17 11:20:20;;;;;;;0.90;0.90;;;21.30;57.10;;;;;;4974011;28;20280;-76
2022/04/17 11:22:49;;;;;;;1.00;1.00;;;21.20;57.10;;;;;;4972093;28;20201;-77
2022/04/17 11:25:16;;;;;;;1.25;1.08;;;21.30;56.40;;;;;;4950634;28;20218;-78
2022/04/17 11:27:48;;;;;;;0.80;0.80;;;21.30;57.00;;;;;;4952631;28;20232;-77
2022/04/17 11:30:34;;;;;;;1.58;1.00;;;21.30;55.40;;;;;;4951819;28;20226;-77
2022/04/17 11:33:02;;;;;;;0.73;0.73;;;21.20;53.50;;;;;;4956996;28;20216;-77
2022/04/17 11:35:30;;;;;;;1.33;1.10;;;21.20;54.20;;;;;;4954381;28;20208;-76
2022/04/17 11:38:03;;;;;;;0.95;0.90;;;21.20;55.20;;;;;;4963089;28;20197;-78
2022/04/17 11:40:33;;;;;;;1.38;0.80;;;21.20;53.20;;;;;;4957750;28;20199;-77
2022/04/17 11:43:07;;;;;;;1.00;0.90;;;21.30;54.00;;;;;;4960198;28;20209;-77
2022/04/17 11:45:34;;;;;;;1.08;0.93;;;21.20;53.30;;;;;;4955549;28;20627;-79
2022/04/17 11:48:06;;;;;;;1.05;0.95;;;21.20;53.50;;;;;;4960448;28;20201;-78
2022/04/17 11:50:34;;;;;;;1.52;0.85;;;21.30;52.90;;;;;;4975689;28;20197;-77
2022/04/17 11:53:04;;;;;;;0.93;0.88;;;21.30;53.40;;;;;;4977025;28;20734;-77
2022/04/17 11:55:32;;;;;;;1.40;0.82;;;21.30;54.20;;;;;;4959808;28;20198;-78
2022/04/17 11:58:00;;;;;;;0.93;0.90;;;21.30;53.70;;;;;;4960625;28;20654;-79
2022/04/17 12:00:28;;;;;;;1.80;0.93;;;21.30;53.80;;;;;;4959400;28;20731;-79
2022/04/17 12:03:03;;;;;;;1.50;1.00;;;21.40;53.80;;;;;;4965673;28;20205;-78
2022/04/17 12:05:31;;;;;;;0.80;0.80;;;21.50;52.90;;;;;;4955059;28;20235;-77
2022/04/17 12:08:01;;;;;;;0.80;0.80;;;21.60;51.10;;;;;;4958263;28;20206;-76
2022/04/17 12:10:30;;;;;;;1.05;0.70;;;21.90;55.10;;;;;;4953649;28;20276;-76
2022/04/17 12:12:58;;;;;;;0.70;0.70;;;22.20;53.50;;;;;;4957173;28;20256;-77
2022/04/17 12:15:25;;;;;;;0.93;0.90;;;22.10;53.10;;;;;;4962055;28;20281;-77
2022/04/17 12:17:59;;;;;;;0.80;0.70;;;21.90;52.50;;;;;;4960032;28;20299;-77
2022/04/17 12:20:27;;;;;;;0.70;0.70;;;21.70;52.80;;;;;;4952596;28;20226;-77
2022/04/17 12:22:54;;;;;;;0.95;0.82;;;21.70;54.50;;;;;;4959947;28;20281;-76
2022/04/17 12:25:22;;;;;;;0.73;0.73;;;21.80;53.20;;;;;;4957916;28;20704;-77
2022/04/17 12:27:51;;;;;;;0.60;0.60;;;21.90;54.80;;;;;;4951647;28;21001;-78
2022/04/17 12:30:23;;;;;;;0.80;0.80;;;22.00;52.70;;;;;;4958636;28;20273;-75
2022/04/17 12:32:55;;;;;;;1.30;0.82;;;22.10;53.20;;;;;;4954455;28;20585;-78
2022/04/17 12:35:24;;;;;;;0.60;0.60;;;21.90;52.50;;;;;;4960047;28;20217;-75
2022/04/17 12:38:02;;;;;;;0.85;0.70;;;21.90;52.00;;;;;;4955292;28;20272;-77
2022/04/17 12:40:29;;;;;;;2.58;0.90;;;22.00;51.20;;;;;;4957955;28;20309;-75
2022/04/17 12:43:14;;;;;;;1.80;0.90;;;22.10;52.50;;;;;;4960543;28;20922;-75
2022/04/17 12:45:53;;;;;;;1.20;1.00;;;22.00;53.30;;;;;;4980334;28;20219;-76
2022/04/17 12:48:26;;;;;;;1.42;0.90;;;21.80;52.60;;;;;;4980119;28;20292;-77
2022/04/17 12:51:11;;;;;;;1.77;0.70;;;21.80;53.20;;;;;;4980722;28;20197;-77
2022/04/17 12:53:40;;;;;;;1.98;0.70;;;21.90;57.10;;;;;;4980948;28;20268;-76
2022/04/17 12:56:08;;;;;;;1.27;1.00;;;22.00;55.60;;;;;;4963760;28;20236;-75
2022/04/17 12:58:51;;;;;;;1.08;1.05;;;21.80;54.20;;;;;;4965180;28;20665;-76
2022/04/17 13:01:22;;;;;;;1.10;1.00;;;21.70;54.20;;;;;;4961264;28;20304;-77
2022/04/17 13:03:50;;;;;;;0.93;0.90;;;21.50;54.10;;;;;;4964736;28;20699;-75
2022/04/17 13:06:22;;;;;;;0.85;0.80;;;21.60;55.10;;;;;;4982171;28;20228;-76
2022/04/17 13:09:03;;;;;;;1.05;0.98;;;21.50;55.50;;;;;;4978206;28;20225;-75
2022/04/17 13:11:33;;;;;;;0.95;0.95;;;21.40;54.50;;;;;;4955592;28;20683;-76
2022/04/17 13:14:03;;;;;;;1.30;1.00;;;21.50;56.30;;;;;;4960223;28;20228;-75
2022/04/17 13:16:31;;;;;;;1.40;0.90;;;21.40;55.20;;;;;;4961874;28;20214;-74